KSBN

South Bend International Airport

South Bend, Indiana, USA
KSBN 210534Z 2106/2206 VRB03KT P6SM FEW150 BKN250 FM211800 34006KT P6SM BKN140
Issued Valid From Valid To
Apr-21 @ 05:34 UTC
(4 hours ago)
Apr-21 @ 06:00 UTC
(3 hours ago)
Apr-22 @ 06:00 UTC
(in 21 hours)
Apr-21 @ 06:00 to Apr-21 @ 18:00
KSBN 210534Z 2106/2206 VRB03KT P6SM FEW150 BKN250
Wind Visibility Clouds
Variable at 3 knots Greater than 6 miles
  • Few at 15,000' AGL
  • Broken at 25,000' AGL
From Apr-21 @ 18:00 to Apr-22 @ 06:00
FM211800 34006KT P6SM BKN140
Wind Visibility Clouds
340° at 6 knots Greater than 6 miles
  • Broken at 14,000' AGL
KSBN 210534Z 2106/2206 VRB03KT P6SM FEW150 BKN250 FM211800 34006KT P6SM BKN140
Issued Apr-21 @ 05:34 UTC
(4 hours ago)
Valid From Apr-21 @ 06:00 UTC
(3 hours ago)
Valid To Apr-22 @ 06:00 UTC
(in 21 hours)
Apr-21 @ 06:00 - Apr-21 @ 18:00
Wind Visibility
Variable at 3 knots Greater than 6 miles
Clouds
  • Few at 15,000' AGL
  • Broken at 25,000' AGL
From Apr-21 @ 18:00 - Apr-22 @ 06:00
Wind Visibility
340° at 6 knots Greater than 6 miles
Clouds
  • Broken at 14,000' AGL